sensor_id;sensor_type;location;lat;lon;timestamp;P1;durP1;ratioP1;P2;durP2;ratioP2
66179;SDS011;52986;44.028;20.466;2023-07-31T00:01:17;16.80;;;10.15;;
66179;SDS011;52986;44.028;20.466;2023-07-31T00:03:42;17.80;;;9.55;;
66179;SDS011;52986;44.028;20.466;2023-07-31T00:06:07;16.55;;;9.43;;
66179;SDS011;52986;44.028;20.466;2023-07-31T00:08:33;15.75;;;9.40;;
66179;SDS011;52986;44.028;20.466;2023-07-31T00:10:58;14.90;;;9.32;;
66179;SDS011;52986;44.028;20.466;2023-07-31T00:13:23;15.77;;;9.52;;
66179;SDS011;52986;44.028;20.466;2023-07-31T00:15:49;17.40;;;9.25;;
66179;SDS011;52986;44.028;20.466;2023-07-31T00:18:15;14.80;;;9.43;;
66179;SDS011;52986;44.028;20.466;2023-07-31T00:20:40;17.60;;;10.15;;
66179;SDS011;52986;44.028;20.466;2023-07-31T00:23:06;16.27;;;9.80;;
66179;SDS011;52986;44.028;20.466;2023-07-31T00:25:31;17.20;;;10.05;;
66179;SDS011;52986;44.028;20.466;2023-07-31T00:27:57;18.10;;;10.07;;
66179;SDS011;52986;44.028;20.466;2023-07-31T00:30:22;19.63;;;10.02;;
66179;SDS011;52986;44.028;20.466;2023-07-31T00:32:47;17.00;;;9.27;;
66179;SDS011;52986;44.028;20.466;2023-07-31T00:35:13;18.48;;;9.32;;
66179;SDS011;52986;44.028;20.466;2023-07-31T00:37:38;18.23;;;9.55;;
66179;SDS011;52986;44.028;20.466;2023-07-31T00:40:04;16.45;;;9.25;;
66179;SDS011;52986;44.028;20.466;2023-07-31T00:42:29;15.50;;;9.80;;
66179;SDS011;52986;44.028;20.466;2023-07-31T00:44:55;17.08;;;8.95;;
66179;SDS011;52986;44.028;20.466;2023-07-31T00:47:20;15.00;;;9.23;;
66179;SDS011;52986;44.028;20.466;2023-07-31T00:49:46;16.10;;;8.93;;
66179;SDS011;52986;44.028;20.466;2023-07-31T00:52:11;16.83;;;8.95;;
66179;SDS011;52986;44.028;20.466;2023-07-31T00:54:37;15.40;;;9.13;;
66179;SDS011;52986;44.028;20.466;2023-07-31T00:57:03;14.13;;;9.23;;
66179;SDS011;52986;44.028;20.466;2023-07-31T00:59:28;15.48;;;8.90;;
66179;SDS011;52986;44.028;20.466;2023-07-31T01:01:54;14.32;;;8.80;;
66179;SDS011;52986;44.028;20.466;2023-07-31T01:04:20;15.70;;;8.95;;
66179;SDS011;52986;44.028;20.466;2023-07-31T01:07:05;15.15;;;8.93;;
66179;SDS011;52986;44.028;20.466;2023-07-31T01:12:33;15.80;;;9.20;;
66179;SDS011;52986;44.028;20.466;2023-07-31T01:17:28;14.30;;;8.88;;
66179;SDS011;52986;44.028;20.466;2023-07-31T01:19:54;15.75;;;8.45;;
66179;SDS011;52986;44.028;20.466;2023-07-31T01:22:27;15.48;;;8.40;;
66179;SDS011;52986;44.028;20.466;2023-07-31T01:30:14;15.02;;;7.85;;
66179;SDS011;52986;44.028;20.466;2023-07-31T01:32:42;15.80;;;7.78;;
66179;SDS011;52986;44.028;20.466;2023-07-31T01:35:09;15.23;;;8.00;;
66179;SDS011;52986;44.028;20.466;2023-07-31T01:37:35;16.15;;;8.60;;
66179;SDS011;52986;44.028;20.466;2023-07-31T01:40:00;16.65;;;8.15;;
66179;SDS011;52986;44.028;20.466;2023-07-31T01:42:26;14.90;;;8.43;;
66179;SDS011;52986;44.028;20.466;2023-07-31T01:44:51;13.67;;;7.97;;
66179;SDS011;52986;44.028;20.466;2023-07-31T01:47:16;13.50;;;8.20;;
66179;SDS011;52986;44.028;20.466;2023-07-31T01:49:42;14.38;;;7.78;;
66179;SDS011;52986;44.028;20.466;2023-07-31T01:52:07;14.32;;;8.10;;
66179;SDS011;52986;44.028;20.466;2023-07-31T01:54:32;15.38;;;8.05;;
66179;SDS011;52986;44.028;20.466;2023-07-31T01:56:58;15.77;;;8.90;;
66179;SDS011;52986;44.028;20.466;2023-07-31T01:59:24;16.75;;;8.60;;
66179;SDS011;52986;44.028;20.466;2023-07-31T02:01:49;15.15;;;8.13;;
66179;SDS011;52986;44.028;20.466;2023-07-31T02:04:14;14.98;;;8.40;;
66179;SDS011;52986;44.028;20.466;2023-07-31T02:06:40;14.10;;;8.00;;
66179;SDS011;52986;44.028;20.466;2023-07-31T02:09:05;13.50;;;7.90;;
66179;SDS011;52986;44.028;20.466;2023-07-31T02:11:31;15.68;;;8.05;;
66179;SDS011;52986;44.028;20.466;2023-07-31T02:13:56;14.60;;;8.45;;
66179;SDS011;52986;44.028;20.466;2023-07-31T02:16:21;16.02;;;8.10;;
66179;SDS011;52986;44.028;20.466;2023-07-31T02:18:47;13.25;;;7.95;;
66179;SDS011;52986;44.028;20.466;2023-07-31T02:21:12;14.87;;;8.43;;
66179;SDS011;52986;44.028;20.466;2023-07-31T02:23:37;13.05;;;8.18;;
66179;SDS011;52986;44.028;20.466;2023-07-31T02:26:03;15.60;;;8.83;;
66179;SDS011;52986;44.028;20.466;2023-07-31T02:28:28;16.98;;;9.30;;
66179;SDS011;52986;44.028;20.466;2023-07-31T02:30:54;14.95;;;9.05;;
66179;SDS011;52986;44.028;20.466;2023-07-31T02:33:20;16.52;;;8.93;;
66179;SDS011;52986;44.028;20.466;2023-07-31T02:35:45;15.23;;;8.95;;
66179;SDS011;52986;44.028;20.466;2023-07-31T02:38:11;14.27;;;8.70;;
66179;SDS011;52986;44.028;20.466;2023-07-31T02:40:36;13.18;;;8.10;;
66179;SDS011;52986;44.028;20.466;2023-07-31T02:43:01;16.58;;;8.05;;
66179;SDS011;52986;44.028;20.466;2023-07-31T02:45:27;14.25;;;8.20;;
66179;SDS011;52986;44.028;20.466;2023-07-31T02:47:52;14.60;;;8.18;;
66179;SDS011;52986;44.028;20.466;2023-07-31T02:50:18;14.45;;;8.55;;
66179;SDS011;52986;44.028;20.466;2023-07-31T02:52:43;13.65;;;8.48;;
66179;SDS011;52986;44.028;20.466;2023-07-31T02:55:08;14.00;;;8.25;;
66179;SDS011;52986;44.028;20.466;2023-07-31T02:57:34;14.05;;;9.23;;
66179;SDS011;52986;44.028;20.466;2023-07-31T02:59:59;14.02;;;8.68;;
66179;SDS011;52986;44.028;20.466;2023-07-31T03:02:24;17.95;;;9.35;;
66179;SDS011;52986;44.028;20.466;2023-07-31T03:04:50;16.08;;;9.57;;
66179;SDS011;52986;44.028;20.466;2023-07-31T03:07:15;17.40;;;9.93;;
66179;SDS011;52986;44.028;20.466;2023-07-31T03:09:41;16.27;;;9.73;;
66179;SDS011;52986;44.028;20.466;2023-07-31T03:12:06;19.13;;;10.70;;
66179;SDS011;52986;44.028;20.466;2023-07-31T03:14:33;17.40;;;10.38;;
66179;SDS011;52986;44.028;20.466;2023-07-31T03:16:58;15.70;;;9.75;;
66179;SDS011;52986;44.028;20.466;2023-07-31T03:19:24;14.35;;;8.75;;
66179;SDS011;52986;44.028;20.466;2023-07-31T03:21:50;17.05;;;9.60;;
66179;SDS011;52986;44.028;20.466;2023-07-31T03:24:15;15.48;;;8.98;;
66179;SDS011;52986;44.028;20.466;2023-07-31T03:26:40;17.67;;;9.35;;
66179;SDS011;52986;44.028;20.466;2023-07-31T03:29:08;14.43;;;9.07;;
66179;SDS011;52986;44.028;20.466;2023-07-31T03:31:34;17.33;;;10.20;;
66179;SDS011;52986;44.028;20.466;2023-07-31T03:33:59;16.13;;;9.83;;
66179;SDS011;52986;44.028;20.466;2023-07-31T03:36:25;18.17;;;9.43;;
66179;SDS011;52986;44.028;20.466;2023-07-31T03:38:51;17.42;;;8.95;;
66179;SDS011;52986;44.028;20.466;2023-07-31T03:41:17;14.95;;;8.68;;
66179;SDS011;52986;44.028;20.466;2023-07-31T03:43:42;15.55;;;8.93;;
66179;SDS011;52986;44.028;20.466;2023-07-31T03:46:09;17.27;;;9.07;;
66179;SDS011;52986;44.028;20.466;2023-07-31T03:48:34;15.50;;;8.85;;
66179;SDS011;52986;44.028;20.466;2023-07-31T03:50:59;18.45;;;9.68;;
66179;SDS011;52986;44.028;20.466;2023-07-31T03:53:25;15.25;;;9.30;;
66179;SDS011;52986;44.028;20.466;2023-07-31T03:55:50;16.83;;;9.65;;
66179;SDS011;52986;44.028;20.466;2023-07-31T03:58:16;17.00;;;9.75;;
66179;SDS011;52986;44.028;20.466;2023-07-31T04:00:41;15.25;;;9.23;;
66179;SDS011;52986;44.028;20.466;2023-07-31T04:03:06;16.15;;;10.40;;
66179;SDS011;52986;44.028;20.466;2023-07-31T04:05:32;17.80;;;10.13;;
66179;SDS011;52986;44.028;20.466;2023-07-31T04:07:58;19.85;;;10.63;;
66179;SDS011;52986;44.028;20.466;2023-07-31T04:10:23;19.40;;;9.95;;
66179;SDS011;52986;44.028;20.466;2023-07-31T04:12:48;16.52;;;9.35;;
66179;SDS011;52986;44.028;20.466;2023-07-31T04:15:14;18.13;;;9.63;;
66179;SDS011;52986;44.028;20.466;2023-07-31T04:17:39;16.95;;;9.90;;
66179;SDS011;52986;44.028;20.466;2023-07-31T04:20:05;17.83;;;9.95;;
66179;SDS011;52986;44.028;20.466;2023-07-31T04:22:31;19.45;;;9.80;;
66179;SDS011;52986;44.028;20.466;2023-07-31T04:24:56;19.23;;;9.98;;
66179;SDS011;52986;44.028;20.466;2023-07-31T04:27:21;18.35;;;10.18;;
66179;SDS011;52986;44.028;20.466;2023-07-31T04:29:47;17.40;;;10.27;;
66179;SDS011;52986;44.028;20.466;2023-07-31T04:32:12;21.83;;;10.32;;
66179;SDS011;52986;44.028;20.466;2023-07-31T04:34:38;19.88;;;10.23;;
66179;SDS011;52986;44.028;20.466;2023-07-31T04:37:03;17.77;;;9.85;;
66179;SDS011;52986;44.028;20.466;2023-07-31T04:39:29;18.85;;;9.75;;
66179;SDS011;52986;44.028;20.466;2023-07-31T04:41:54;20.65;;;9.77;;
66179;SDS011;52986;44.028;20.466;2023-07-31T04:44:20;21.63;;;9.70;;
66179;SDS011;52986;44.028;20.466;2023-07-31T04:46:45;17.58;;;9.55;;
66179;SDS011;52986;44.028;20.466;2023-07-31T04:49:11;15.68;;;9.43;;
66179;SDS011;52986;44.028;20.466;2023-07-31T04:51:36;17.60;;;9.32;;
66179;SDS011;52986;44.028;20.466;2023-07-31T04:54:02;15.50;;;9.23;;
66179;SDS011;52986;44.028;20.466;2023-07-31T04:56:27;14.10;;;8.57;;
66179;SDS011;52986;44.028;20.466;2023-07-31T04:58:53;18.38;;;9.63;;
66179;SDS011;52986;44.028;20.466;2023-07-31T05:01:18;17.23;;;9.00;;
66179;SDS011;52986;44.028;20.466;2023-07-31T05:03:43;19.23;;;10.00;;
66179;SDS011;52986;44.028;20.466;2023-07-31T05:06:09;21.17;;;10.13;;
66179;SDS011;52986;44.028;20.466;2023-07-31T05:08:34;21.25;;;10.13;;
66179;SDS011;52986;44.028;20.466;2023-07-31T05:10:59;14.18;;;8.48;;
66179;SDS011;52986;44.028;20.466;2023-07-31T05:13:25;17.50;;;8.82;;
66179;SDS011;52986;44.028;20.466;2023-07-31T05:15:50;16.98;;;8.57;;
66179;SDS011;52986;44.028;20.466;2023-07-31T05:18:16;13.77;;;8.00;;
66179;SDS011;52986;44.028;20.466;2023-07-31T05:20:41;13.18;;;7.20;;
66179;SDS011;52986;44.028;20.466;2023-07-31T05:23:06;12.93;;;6.72;;
66179;SDS011;52986;44.028;20.466;2023-07-31T05:25:32;14.50;;;7.00;;
66179;SDS011;52986;44.028;20.466;2023-07-31T05:27:57;12.07;;;7.25;;
66179;SDS011;52986;44.028;20.466;2023-07-31T05:30:23;12.43;;;6.68;;
66179;SDS011;52986;44.028;20.466;2023-07-31T05:32:48;12.77;;;6.28;;
66179;SDS011;52986;44.028;20.466;2023-07-31T05:35:13;11.68;;;5.75;;
66179;SDS011;52986;44.028;20.466;2023-07-31T05:37:39;10.43;;;5.20;;
66179;SDS011;52986;44.028;20.466;2023-07-31T05:40:04;9.37;;;5.13;;
66179;SDS011;52986;44.028;20.466;2023-07-31T05:42:30;8.85;;;4.18;;
66179;SDS011;52986;44.028;20.466;2023-07-31T05:44:56;9.00;;;4.43;;
66179;SDS011;52986;44.028;20.466;2023-07-31T05:47:21;10.13;;;4.65;;
66179;SDS011;52986;44.028;20.466;2023-07-31T05:49:48;13.80;;;8.02;;
66179;SDS011;52986;44.028;20.466;2023-07-31T05:52:14;9.15;;;4.05;;
66179;SDS011;52986;44.028;20.466;2023-07-31T05:54:41;8.90;;;3.88;;
66179;SDS011;52986;44.028;20.466;2023-07-31T05:57:07;12.32;;;3.97;;
66179;SDS011;52986;44.028;20.466;2023-07-31T05:59:32;7.53;;;3.75;;
66179;SDS011;52986;44.028;20.466;2023-07-31T06:01:58;8.55;;;3.80;;
66179;SDS011;52986;44.028;20.466;2023-07-31T06:04:24;7.53;;;3.50;;
66179;SDS011;52986;44.028;20.466;2023-07-31T06:06:50;8.90;;;4.13;;
66179;SDS011;52986;44.028;20.466;2023-07-31T06:09:16;7.90;;;3.83;;
66179;SDS011;52986;44.028;20.466;2023-07-31T06:11:41;7.70;;;3.45;;
66179;SDS011;52986;44.028;20.466;2023-07-31T06:14:07;8.00;;;3.65;;
66179;SDS011;52986;44.028;20.466;2023-07-31T06:16:32;6.90;;;3.40;;
66179;SDS011;52986;44.028;20.466;2023-07-31T06:18:57;8.32;;;3.42;;
66179;SDS011;52986;44.028;20.466;2023-07-31T06:21:23;7.40;;;3.22;;
66179;SDS011;52986;44.028;20.466;2023-07-31T06:23:48;9.63;;;3.40;;
66179;SDS011;52986;44.028;20.466;2023-07-31T06:26:14;9.07;;;3.43;;
66179;SDS011;52986;44.028;20.466;2023-07-31T06:28:39;8.70;;;3.53;;
66179;SDS011;52986;44.028;20.466;2023-07-31T06:31:05;7.78;;;3.38;;
66179;SDS011;52986;44.028;20.466;2023-07-31T06:33:30;8.80;;;3.90;;
66179;SDS011;52986;44.028;20.466;2023-07-31T06:35:55;8.18;;;3.83;;
66179;SDS011;52986;44.028;20.466;2023-07-31T06:38:24;7.07;;;3.53;;
66179;SDS011;52986;44.028;20.466;2023-07-31T06:40:51;7.93;;;4.15;;
66179;SDS011;52986;44.028;20.466;2023-07-31T06:43:17;8.35;;;4.15;;
66179;SDS011;52986;44.028;20.466;2023-07-31T06:45:43;8.98;;;4.60;;
66179;SDS011;52986;44.028;20.466;2023-07-31T06:48:08;9.27;;;4.43;;
66179;SDS011;52986;44.028;20.466;2023-07-31T06:50:34;9.88;;;5.10;;
66179;SDS011;52986;44.028;20.466;2023-07-31T06:52:59;10.43;;;4.75;;
66179;SDS011;52986;44.028;20.466;2023-07-31T06:55:25;12.65;;;4.88;;
66179;SDS011;52986;44.028;20.466;2023-07-31T06:57:51;12.93;;;4.88;;
66179;SDS011;52986;44.028;20.466;2023-07-31T07:00:18;8.40;;;4.22;;
66179;SDS011;52986;44.028;20.466;2023-07-31T07:02:44;10.70;;;4.50;;
66179;SDS011;52986;44.028;20.466;2023-07-31T07:05:10;10.93;;;4.43;;
66179;SDS011;52986;44.028;20.466;2023-07-31T07:07:35;10.25;;;4.50;;
66179;SDS011;52986;44.028;20.466;2023-07-31T07:10:01;9.77;;;4.85;;
66179;SDS011;52986;44.028;20.466;2023-07-31T07:12:31;10.70;;;4.75;;
66179;SDS011;52986;44.028;20.466;2023-07-31T07:14:58;10.48;;;4.45;;
66179;SDS011;52986;44.028;20.466;2023-07-31T07:17:24;12.25;;;5.20;;
66179;SDS011;52986;44.028;20.466;2023-07-31T07:19:50;10.57;;;4.90;;
66179;SDS011;52986;44.028;20.466;2023-07-31T07:22:15;8.20;;;4.93;;
66179;SDS011;52986;44.028;20.466;2023-07-31T07:24:41;9.63;;;4.90;;
66179;SDS011;52986;44.028;20.466;2023-07-31T07:27:07;9.80;;;4.38;;
66179;SDS011;52986;44.028;20.466;2023-07-31T07:29:33;8.98;;;4.55;;
66179;SDS011;52986;44.028;20.466;2023-07-31T07:32:00;9.77;;;4.35;;
66179;SDS011;52986;44.028;20.466;2023-07-31T07:34:26;7.55;;;3.65;;
66179;SDS011;52986;44.028;20.466;2023-07-31T07:36:52;10.43;;;4.22;;
66179;SDS011;52986;44.028;20.466;2023-07-31T07:39:18;9.13;;;3.72;;
66179;SDS011;52986;44.028;20.466;2023-07-31T07:41:43;11.82;;;3.83;;
66179;SDS011;52986;44.028;20.466;2023-07-31T07:44:08;7.85;;;2.80;;
66179;SDS011;52986;44.028;20.466;2023-07-31T07:46:34;13.73;;;3.53;;
66179;SDS011;52986;44.028;20.466;2023-07-31T07:48:59;8.65;;;3.30;;
66179;SDS011;52986;44.028;20.466;2023-07-31T07:51:25;8.13;;;3.20;;
66179;SDS011;52986;44.028;20.466;2023-07-31T07:53:50;10.20;;;3.95;;
66179;SDS011;52986;44.028;20.466;2023-07-31T07:56:16;10.70;;;3.20;;
66179;SDS011;52986;44.028;20.466;2023-07-31T07:58:41;7.30;;;3.17;;
66179;SDS011;52986;44.028;20.466;2023-07-31T08:01:06;9.95;;;3.47;;
66179;SDS011;52986;44.028;20.466;2023-07-31T08:03:32;13.40;;;4.70;;
66179;SDS011;52986;44.028;20.466;2023-07-31T08:05:58;8.90;;;4.22;;
66179;SDS011;52986;44.028;20.466;2023-07-31T08:08:24;8.52;;;4.13;;
66179;SDS011;52986;44.028;20.466;2023-07-31T08:10:49;9.43;;;4.47;;
66179;SDS011;52986;44.028;20.466;2023-07-31T08:13:14;11.20;;;4.43;;
66179;SDS011;52986;44.028;20.466;2023-07-31T08:15:43;8.95;;;4.50;;
66179;SDS011;52986;44.028;20.466;2023-07-31T08:18:09;10.02;;;4.80;;
66179;SDS011;52986;44.028;20.466;2023-07-31T08:20:34;9.00;;;4.20;;
66179;SDS011;52986;44.028;20.466;2023-07-31T08:23:00;8.25;;;3.67;;
66179;SDS011;52986;44.028;20.466;2023-07-31T08:25:25;8.07;;;3.83;;
66179;SDS011;52986;44.028;20.466;2023-07-31T08:27:51;7.93;;;3.58;;
66179;SDS011;52986;44.028;20.466;2023-07-31T08:30:18;6.38;;;3.10;;
66179;SDS011;52986;44.028;20.466;2023-07-31T08:32:44;6.78;;;3.10;;
66179;SDS011;52986;44.028;20.466;2023-07-31T08:35:09;9.25;;;3.30;;
66179;SDS011;52986;44.028;20.466;2023-07-31T08:37:35;6.85;;;3.20;;
66179;SDS011;52986;44.028;20.466;2023-07-31T08:40:01;6.45;;;3.25;;
66179;SDS011;52986;44.028;20.466;2023-07-31T08:42:26;6.78;;;3.38;;
66179;SDS011;52986;44.028;20.466;2023-07-31T08:44:52;8.30;;;3.40;;
66179;SDS011;52986;44.028;20.466;2023-07-31T08:47:17;7.30;;;2.92;;
66179;SDS011;52986;44.028;20.466;2023-07-31T08:49:45;8.65;;;3.22;;
66179;SDS011;52986;44.028;20.466;2023-07-31T08:52:12;6.10;;;2.83;;
66179;SDS011;52986;44.028;20.466;2023-07-31T08:54:37;7.78;;;3.00;;
66179;SDS011;52986;44.028;20.466;2023-07-31T08:57:03;7.55;;;3.67;;
66179;SDS011;52986;44.028;20.466;2023-07-31T08:59:30;10.55;;;3.58;;
66179;SDS011;52986;44.028;20.466;2023-07-31T09:01:57;7.57;;;2.65;;
66179;SDS011;52986;44.028;20.466;2023-07-31T09:04:25;8.23;;;3.63;;
66179;SDS011;52986;44.028;20.466;2023-07-31T09:06:52;9.50;;;2.90;;
66179;SDS011;52986;44.028;20.466;2023-07-31T09:09:24;8.00;;;2.92;;
66179;SDS011;52986;44.028;20.466;2023-07-31T09:11:50;7.32;;;3.10;;
66179;SDS011;52986;44.028;20.466;2023-07-31T09:14:15;5.47;;;2.60;;
66179;SDS011;52986;44.028;20.466;2023-07-31T09:16:55;8.15;;;2.75;;
66179;SDS011;52986;44.028;20.466;2023-07-31T09:19:24;7.43;;;3.03;;
66179;SDS011;52986;44.028;20.466;2023-07-31T09:22:02;5.72;;;2.78;;
66179;SDS011;52986;44.028;20.466;2023-07-31T09:24:31;5.82;;;2.75;;
66179;SDS011;52986;44.028;20.466;2023-07-31T09:26:58;7.07;;;2.78;;
66179;SDS011;52986;44.028;20.466;2023-07-31T09:29:25;6.43;;;2.75;;
66179;SDS011;52986;44.028;20.466;2023-07-31T09:31:51;4.88;;;2.40;;
66179;SDS011;52986;44.028;20.466;2023-07-31T09:34:17;5.93;;;2.40;;
66179;SDS011;52986;44.028;20.466;2023-07-31T09:36:44;6.18;;;2.70;;
66179;SDS011;52986;44.028;20.466;2023-07-31T09:39:15;7.70;;;2.88;;
66179;SDS011;52986;44.028;20.466;2023-07-31T09:41:42;7.95;;;2.67;;
66179;SDS011;52986;44.028;20.466;2023-07-31T09:44:10;5.65;;;2.70;;
66179;SDS011;52986;44.028;20.466;2023-07-31T09:46:35;6.93;;;2.80;;
66179;SDS011;52986;44.028;20.466;2023-07-31T09:49:08;6.72;;;2.75;;
66179;SDS011;52986;44.028;20.466;2023-07-31T09:51:34;9.60;;;3.20;;
66179;SDS011;52986;44.028;20.466;2023-07-31T09:54:13;8.95;;;2.88;;
66179;SDS011;52986;44.028;20.466;2023-07-31T09:56:44;5.50;;;2.50;;
66179;SDS011;52986;44.028;20.466;2023-07-31T10:01:37;6.70;;;2.50;;
66179;SDS011;52986;44.028;20.466;2023-07-31T10:04:03;5.03;;;2.50;;
66179;SDS011;52986;44.028;20.466;2023-07-31T10:06:30;4.10;;;2.20;;
66179;SDS011;52986;44.028;20.466;2023-07-31T10:08:57;5.13;;;2.35;;
66179;SDS011;52986;44.028;20.466;2023-07-31T10:11:24;4.72;;;2.30;;
66179;SDS011;52986;44.028;20.466;2023-07-31T10:13:52;5.32;;;2.35;;
66179;SDS011;52986;44.028;20.466;2023-07-31T10:16:20;4.85;;;2.22;;
66179;SDS011;52986;44.028;20.466;2023-07-31T10:18:46;5.57;;;2.58;;
66179;SDS011;52986;44.028;20.466;2023-07-31T10:21:12;6.85;;;2.83;;
66179;SDS011;52986;44.028;20.466;2023-07-31T10:23:39;10.13;;;3.08;;
66179;SDS011;52986;44.028;20.466;2023-07-31T10:26:07;5.30;;;2.50;;
66179;SDS011;52986;44.028;20.466;2023-07-31T10:28:33;8.25;;;2.55;;
66179;SDS011;52986;44.028;20.466;2023-07-31T10:31:01;6.07;;;2.60;;
66179;SDS011;52986;44.028;20.466;2023-07-31T10:33:27;5.72;;;2.60;;
66179;SDS011;52986;44.028;20.466;2023-07-31T10:36:11;4.90;;;2.55;;
66179;SDS011;52986;44.028;20.466;2023-07-31T10:38:48;5.47;;;2.70;;
66179;SDS011;52986;44.028;20.466;2023-07-31T10:41:14;6.18;;;2.60;;
66179;SDS011;52986;44.028;20.466;2023-07-31T10:43:40;6.75;;;3.00;;
66179;SDS011;52986;44.028;20.466;2023-07-31T10:46:09;6.20;;;2.90;;
66179;SDS011;52986;44.028;20.466;2023-07-31T10:48:37;7.57;;;3.22;;
66179;SDS011;52986;44.028;20.466;2023-07-31T10:51:06;7.05;;;2.72;;
66179;SDS011;52986;44.028;20.466;2023-07-31T10:53:34;6.63;;;3.20;;
66179;SDS011;52986;44.028;20.466;2023-07-31T10:56:00;6.63;;;2.90;;
66179;SDS011;52986;44.028;20.466;2023-07-31T10:58:26;9.80;;;3.70;;
66179;SDS011;52986;44.028;20.466;2023-07-31T11:00:55;7.20;;;3.05;;
66179;SDS011;52986;44.028;20.466;2023-07-31T11:03:24;7.00;;;3.05;;
66179;SDS011;52986;44.028;20.466;2023-07-31T11:06:01;12.82;;;3.38;;
66179;SDS011;52986;44.028;20.466;2023-07-31T11:08:31;6.32;;;3.03;;
66179;SDS011;52986;44.028;20.466;2023-07-31T11:13:26;5.75;;;3.00;;
66179;SDS011;52986;44.028;20.466;2023-07-31T11:15:55;8.60;;;2.83;;
66179;SDS011;52986;44.028;20.466;2023-07-31T11:18:20;7.32;;;3.10;;
66179;SDS011;52986;44.028;20.466;2023-07-31T11:20:46;5.82;;;2.80;;
66179;SDS011;52986;44.028;20.466;2023-07-31T11:23:11;7.38;;;3.03;;
66179;SDS011;52986;44.028;20.466;2023-07-31T11:25:37;7.22;;;2.72;;
66179;SDS011;52986;44.028;20.466;2023-07-31T11:28:05;5.80;;;2.17;;
66179;SDS011;52986;44.028;20.466;2023-07-31T11:30:32;5.90;;;2.35;;
66179;SDS011;52986;44.028;20.466;2023-07-31T11:32:58;7.50;;;2.40;;
66179;SDS011;52986;44.028;20.466;2023-07-31T11:35:24;7.22;;;2.80;;
66179;SDS011;52986;44.028;20.466;2023-07-31T11:37:50;5.72;;;2.80;;
66179;SDS011;52986;44.028;20.466;2023-07-31T11:40:15;5.57;;;2.70;;
66179;SDS011;52986;44.028;20.466;2023-07-31T11:42:41;6.18;;;3.15;;
66179;SDS011;52986;44.028;20.466;2023-07-31T11:45:07;6.18;;;2.85;;
66179;SDS011;52986;44.028;20.466;2023-07-31T11:47:36;4.72;;;2.65;;
66179;SDS011;52986;44.028;20.466;2023-07-31T11:50:03;6.70;;;2.90;;
66179;SDS011;52986;44.028;20.466;2023-07-31T11:52:32;5.70;;;2.55;;
66179;SDS011;52986;44.028;20.466;2023-07-31T11:55:00;5.88;;;2.90;;
66179;SDS011;52986;44.028;20.466;2023-07-31T11:57:26;6.43;;;3.22;;
66179;SDS011;52986;44.028;20.466;2023-07-31T11:59:53;7.10;;;3.22;;
66179;SDS011;52986;44.028;20.466;2023-07-31T12:02:19;6.35;;;2.97;;
66179;SDS011;52986;44.028;20.466;2023-07-31T12:04:46;6.07;;;3.03;;
66179;SDS011;52986;44.028;20.466;2023-07-31T12:07:12;7.25;;;3.10;;
66179;SDS011;52986;44.028;20.466;2023-07-31T12:09:38;5.57;;;2.80;;
66179;SDS011;52986;44.028;20.466;2023-07-31T12:12:03;7.15;;;3.00;;
66179;SDS011;52986;44.028;20.466;2023-07-31T12:14:33;7.53;;;2.88;;
66179;SDS011;52986;44.028;20.466;2023-07-31T12:17:00;8.55;;;3.65;;
66179;SDS011;52986;44.028;20.466;2023-07-31T12:19:32;8.07;;;3.30;;
66179;SDS011;52986;44.028;20.466;2023-07-31T12:21:58;7.05;;;3.05;;
66179;SDS011;52986;44.028;20.466;2023-07-31T12:24:27;7.55;;;3.45;;
66179;SDS011;52986;44.028;20.466;2023-07-31T12:26:52;6.68;;;3.40;;
66179;SDS011;52986;44.028;20.466;2023-07-31T12:29:19;8.00;;;3.30;;
66179;SDS011;52986;44.028;20.466;2023-07-31T12:31:45;6.63;;;3.10;;
66179;SDS011;52986;44.028;20.466;2023-07-31T12:34:17;6.35;;;3.13;;
66179;SDS011;52986;44.028;20.466;2023-07-31T12:36:43;6.47;;;3.30;;
66179;SDS011;52986;44.028;20.466;2023-07-31T12:39:09;6.97;;;3.10;;
66179;SDS011;52986;44.028;20.466;2023-07-31T12:41:35;8.15;;;3.30;;
66179;SDS011;52986;44.028;20.466;2023-07-31T12:44:01;6.63;;;3.05;;
66179;SDS011;52986;44.028;20.466;2023-07-31T12:46:26;8.05;;;3.40;;
66179;SDS011;52986;44.028;20.466;2023-07-31T12:48:52;9.13;;;3.20;;
66179;SDS011;52986;44.028;20.466;2023-07-31T12:51:17;6.57;;;3.25;;
66179;SDS011;52986;44.028;20.466;2023-07-31T12:53:42;6.75;;;3.20;;
66179;SDS011;52986;44.028;20.466;2023-07-31T12:56:08;7.70;;;3.33;;
66179;SDS011;52986;44.028;20.466;2023-07-31T12:58:33;7.35;;;3.47;;
66179;SDS011;52986;44.028;20.466;2023-07-31T13:00:59;7.28;;;3.92;;
66179;SDS011;52986;44.028;20.466;2023-07-31T13:03:24;7.38;;;3.42;;
66179;SDS011;52986;44.028;20.466;2023-07-31T13:05:50;7.75;;;3.45;;
66179;SDS011;52986;44.028;20.466;2023-07-31T13:08:17;9.98;;;4.00;;
66179;SDS011;52986;44.028;20.466;2023-07-31T13:10:42;7.28;;;3.40;;
66179;SDS011;52986;44.028;20.466;2023-07-31T13:13:08;7.30;;;3.13;;
66179;SDS011;52986;44.028;20.466;2023-07-31T13:15:34;11.00;;;3.47;;
66179;SDS011;52986;44.028;20.466;2023-07-31T13:18:00;6.28;;;2.85;;
66179;SDS011;52986;44.028;20.466;2023-07-31T13:20:25;6.28;;;2.85;;
66179;SDS011;52986;44.028;20.466;2023-07-31T13:22:50;7.30;;;3.10;;
66179;SDS011;52986;44.028;20.466;2023-07-31T13:25:16;7.65;;;3.20;;
66179;SDS011;52986;44.028;20.466;2023-07-31T13:27:41;6.15;;;2.80;;
66179;SDS011;52986;44.028;20.466;2023-07-31T13:30:07;10.07;;;3.33;;
66179;SDS011;52986;44.028;20.466;2023-07-31T13:32:32;6.68;;;3.25;;
66179;SDS011;52986;44.028;20.466;2023-07-31T13:34:58;7.68;;;3.00;;
66179;SDS011;52986;44.028;20.466;2023-07-31T13:37:24;7.55;;;3.15;;
66179;SDS011;52986;44.028;20.466;2023-07-31T13:39:49;6.43;;;2.78;;
66179;SDS011;52986;44.028;20.466;2023-07-31T13:42:15;8.57;;;3.00;;
66179;SDS011;52986;44.028;20.466;2023-07-31T13:44:42;7.88;;;3.15;;
66179;SDS011;52986;44.028;20.466;2023-07-31T13:47:07;7.20;;;3.00;;
66179;SDS011;52986;44.028;20.466;2023-07-31T13:49:34;8.70;;;3.40;;
66179;SDS011;52986;44.028;20.466;2023-07-31T13:52:01;6.38;;;2.90;;
66179;SDS011;52986;44.028;20.466;2023-07-31T13:54:26;7.60;;;3.28;;
66179;SDS011;52986;44.028;20.466;2023-07-31T13:56:52;7.07;;;2.95;;
66179;SDS011;52986;44.028;20.466;2023-07-31T13:59:18;7.55;;;3.00;;
66179;SDS011;52986;44.028;20.466;2023-07-31T14:01:43;6.05;;;2.83;;
66179;SDS011;52986;44.028;20.466;2023-07-31T14:04:09;7.22;;;2.90;;
66179;SDS011;52986;44.028;20.466;2023-07-31T14:06:35;6.57;;;3.15;;
66179;SDS011;52986;44.028;20.466;2023-07-31T14:09:00;9.10;;;3.55;;
66179;SDS011;52986;44.028;20.466;2023-07-31T14:11:26;7.15;;;3.40;;
66179;SDS011;52986;44.028;20.466;2023-07-31T14:13:51;9.77;;;3.35;;
66179;SDS011;52986;44.028;20.466;2023-07-31T14:16:17;7.47;;;3.30;;
66179;SDS011;52986;44.028;20.466;2023-07-31T14:18:43;8.82;;;3.30;;
66179;SDS011;52986;44.028;20.466;2023-07-31T14:21:10;8.30;;;3.40;;
66179;SDS011;52986;44.028;20.466;2023-07-31T14:23:35;5.82;;;2.97;;
66179;SDS011;52986;44.028;20.466;2023-07-31T14:26:01;7.13;;;3.30;;
66179;SDS011;52986;44.028;20.466;2023-07-31T14:28:26;8.27;;;3.35;;
66179;SDS011;52986;44.028;20.466;2023-07-31T14:30:51;8.48;;;3.78;;
66179;SDS011;52986;44.028;20.466;2023-07-31T14:33:17;8.85;;;4.05;;
66179;SDS011;52986;44.028;20.466;2023-07-31T14:35:42;9.15;;;4.05;;
66179;SDS011;52986;44.028;20.466;2023-07-31T14:38:08;9.40;;;4.00;;